sensor_id;sensor_type;location;lat;lon;timestamp;pressure;altitude;pressure_sealevel;temperature;humidity
77381;BME280;66439;50.106;10.996;2023-08-12T00:00:21;99057.42;;;20.16;63.92
77381;BME280;66439;50.106;10.996;2023-08-12T00:02:45;99056.84;;;20.14;63.99
77381;BME280;66439;50.106;10.996;2023-08-12T00:04:48;99055.77;;;20.17;64.16
77381;BME280;66439;50.106;10.996;2023-08-12T00:06:51;99054.55;;;20.19;63.93
77381;BME280;66439;50.106;10.996;2023-08-12T00:08:54;99053.70;;;20.20;63.95
77381;BME280;66439;50.106;10.996;2023-08-12T00:10:57;99052.52;;;20.19;63.84
77381;BME280;66439;50.106;10.996;2023-08-12T00:13:01;99058.20;;;20.20;63.75
77381;BME280;66439;50.106;10.996;2023-08-12T00:15:07;99051.93;;;20.19;63.85
77381;BME280;66439;50.106;10.996;2023-08-12T00:17:13;99050.48;;;20.20;63.77
77381;BME280;66439;50.106;10.996;2023-08-12T00:19:18;99049.58;;;20.18;63.86
77381;BME280;66439;50.106;10.996;2023-08-12T00:21:25;99050.16;;;20.17;63.78
77381;BME280;66439;50.106;10.996;2023-08-12T00:23:30;99052.24;;;20.14;63.93
77381;BME280;66439;50.106;10.996;2023-08-12T00:25:33;99052.23;;;20.08;64.20
77381;BME280;66439;50.106;10.996;2023-08-12T00:27:37;99052.00;;;20.03;64.17
77381;BME280;66439;50.106;10.996;2023-08-12T00:29:41;99054.68;;;20.00;64.31
77381;BME280;66439;50.106;10.996;2023-08-12T00:31:44;99051.86;;;19.92;64.39
77381;BME280;66439;50.106;10.996;2023-08-12T00:33:48;99054.38;;;19.86;64.53
77381;BME280;66439;50.106;10.996;2023-08-12T00:35:51;99049.20;;;19.81;64.75
77381;BME280;66439;50.106;10.996;2023-08-12T00:37:55;99050.70;;;19.75;64.94
77381;BME280;66439;50.106;10.996;2023-08-12T00:39:58;99051.33;;;19.68;64.99
77381;BME280;66439;50.106;10.996;2023-08-12T00:42:01;99046.20;;;19.64;65.12
77381;BME280;66439;50.106;10.996;2023-08-12T00:44:06;99045.27;;;19.60;65.31
77381;BME280;66439;50.106;10.996;2023-08-12T00:46:13;99045.87;;;19.58;65.27
77381;BME280;66439;50.106;10.996;2023-08-12T00:48:17;99047.21;;;19.56;65.41
77381;BME280;66439;50.106;10.996;2023-08-12T00:50:20;99045.56;;;19.56;65.26
77381;BME280;66439;50.106;10.996;2023-08-12T00:52:25;99042.38;;;19.54;65.37
77381;BME280;66439;50.106;10.996;2023-08-12T00:54:29;99043.95;;;19.53;65.31
77381;BME280;66439;50.106;10.996;2023-08-12T00:56:35;99042.02;;;19.55;65.40
77381;BME280;66439;50.106;10.996;2023-08-12T00:58:39;99042.06;;;19.57;65.34
77381;BME280;66439;50.106;10.996;2023-08-12T01:00:42;99041.91;;;19.58;65.38
77381;BME280;66439;50.106;10.996;2023-08-12T01:02:46;99042.59;;;19.58;65.47
77381;BME280;66439;50.106;10.996;2023-08-12T01:04:58;99041.70;;;19.60;65.35
77381;BME280;66439;50.106;10.996;2023-08-12T01:07:02;99042.09;;;19.60;65.24
77381;BME280;66439;50.106;10.996;2023-08-12T01:09:07;99041.56;;;19.60;65.46
77381;BME280;66439;50.106;10.996;2023-08-12T01:11:16;99037.61;;;19.60;65.31
77381;BME280;66439;50.106;10.996;2023-08-12T01:13:57;99031.14;;;19.60;65.44
77381;BME280;66439;50.106;10.996;2023-08-12T01:16:13;99026.66;;;19.58;65.46
77381;BME280;66439;50.106;10.996;2023-08-12T01:18:26;99028.05;;;19.55;65.52
77381;BME280;66439;50.106;10.996;2023-08-12T01:20:34;99026.92;;;19.55;65.41
77381;BME280;66439;50.106;10.996;2023-08-12T01:22:38;99026.56;;;19.56;65.55
77381;BME280;66439;50.106;10.996;2023-08-12T01:24:44;99020.42;;;19.54;65.49
77381;BME280;66439;50.106;10.996;2023-08-12T01:26:47;99020.45;;;19.53;65.65
77381;BME280;66439;50.106;10.996;2023-08-12T01:28:52;99019.65;;;19.51;65.58
77381;BME280;66439;50.106;10.996;2023-08-12T01:30:58;99015.54;;;19.48;65.56
77381;BME280;66439;50.106;10.996;2023-08-12T01:33:09;99010.88;;;19.47;65.57
77381;BME280;66439;50.106;10.996;2023-08-12T01:35:18;99008.73;;;19.45;65.65
77381;BME280;66439;50.106;10.996;2023-08-12T01:37:31;99001.35;;;19.46;65.52
77381;BME280;66439;50.106;10.996;2023-08-12T01:39:35;99003.94;;;19.46;65.51
77381;BME280;66439;50.106;10.996;2023-08-12T01:41:40;98999.77;;;19.44;65.54
77381;BME280;66439;50.106;10.996;2023-08-12T01:43:44;98998.08;;;19.42;65.74
77381;BME280;66439;50.106;10.996;2023-08-12T01:45:47;98992.59;;;19.44;65.64
77381;BME280;66439;50.106;10.996;2023-08-12T01:47:50;98992.41;;;19.47;65.62
77381;BME280;66439;50.106;10.996;2023-08-12T01:49:55;98987.98;;;19.46;65.63
77381;BME280;66439;50.106;10.996;2023-08-12T01:52:02;98983.56;;;19.43;65.65
77381;BME280;66439;50.106;10.996;2023-08-12T01:54:05;98982.59;;;19.41;65.76
77381;BME280;66439;50.106;10.996;2023-08-12T01:56:09;98982.42;;;19.39;65.88
77381;BME280;66439;50.106;10.996;2023-08-12T01:58:13;98986.48;;;19.37;65.72
77381;BME280;66439;50.106;10.996;2023-08-12T02:00:19;98986.51;;;19.36;65.80
77381;BME280;66439;50.106;10.996;2023-08-12T02:02:24;98983.27;;;19.33;65.93
77381;BME280;66439;50.106;10.996;2023-08-12T02:04:30;98982.52;;;19.31;66.05
77381;BME280;66439;50.106;10.996;2023-08-12T02:06:34;98977.48;;;19.30;65.78
77381;BME280;66439;50.106;10.996;2023-08-12T02:08:38;98972.58;;;19.30;65.90
77381;BME280;66439;50.106;10.996;2023-08-12T02:10:42;98975.49;;;19.32;65.78
77381;BME280;66439;50.106;10.996;2023-08-12T02:12:45;98971.98;;;19.30;65.89
77381;BME280;66439;50.106;10.996;2023-08-12T02:14:48;98974.55;;;19.29;66.02
77381;BME280;66439;50.106;10.996;2023-08-12T02:16:51;98978.46;;;19.28;65.96
77381;BME280;66439;50.106;10.996;2023-08-12T02:18:57;98975.20;;;19.27;66.00
77381;BME280;66439;50.106;10.996;2023-08-12T02:21:01;98966.95;;;19.27;65.98
77381;BME280;66439;50.106;10.996;2023-08-12T02:23:08;98969.27;;;19.25;65.85
77381;BME280;66439;50.106;10.996;2023-08-12T02:25:11;98966.42;;;19.24;65.92
77381;BME280;66439;50.106;10.996;2023-08-12T02:27:14;98964.55;;;19.22;65.81
77381;BME280;66439;50.106;10.996;2023-08-12T02:29:18;98959.70;;;19.19;66.01
77381;BME280;66439;50.106;10.996;2023-08-12T02:31:20;98955.75;;;19.21;65.82
77381;BME280;66439;50.106;10.996;2023-08-12T02:33:25;98951.27;;;19.23;65.85
77381;BME280;66439;50.106;10.996;2023-08-12T02:35:29;98945.86;;;19.22;65.89
77381;BME280;66439;50.106;10.996;2023-08-12T02:37:34;98940.39;;;19.21;65.94
77381;BME280;66439;50.106;10.996;2023-08-12T02:39:38;98939.83;;;19.20;66.00
77381;BME280;66439;50.106;10.996;2023-08-12T02:41:41;98943.44;;;19.20;65.91
77381;BME280;66439;50.106;10.996;2023-08-12T02:43:44;98940.65;;;19.18;65.98
77381;BME280;66439;50.106;10.996;2023-08-12T02:45:48;98941.23;;;19.13;66.22
77381;BME280;66439;50.106;10.996;2023-08-12T02:47:51;98939.03;;;19.09;66.09
77381;BME280;66439;50.106;10.996;2023-08-12T02:49:54;98939.55;;;19.06;66.23
77381;BME280;66439;50.106;10.996;2023-08-12T02:51:59;98935.77;;;19.03;66.41
77381;BME280;66439;50.106;10.996;2023-08-12T02:54:05;98933.74;;;19.03;66.38
77381;BME280;66439;50.106;10.996;2023-08-12T02:56:08;98934.31;;;19.01;66.49
77381;BME280;66439;50.106;10.996;2023-08-12T02:58:12;98936.11;;;18.97;66.51
77381;BME280;66439;50.106;10.996;2023-08-12T03:00:16;98938.18;;;18.97;66.71
77381;BME280;66439;50.106;10.996;2023-08-12T03:02:20;98937.55;;;18.95;66.62
77381;BME280;66439;50.106;10.996;2023-08-12T03:04:24;98935.76;;;18.92;66.64
77381;BME280;66439;50.106;10.996;2023-08-12T03:06:28;98935.13;;;18.88;66.68
77381;BME280;66439;50.106;10.996;2023-08-12T03:08:32;98934.42;;;18.86;66.70
77381;BME280;66439;50.106;10.996;2023-08-12T03:10:37;98931.64;;;18.83;66.82
77381;BME280;66439;50.106;10.996;2023-08-12T03:12:42;98931.08;;;18.80;66.93
77381;BME280;66439;50.106;10.996;2023-08-12T03:14:47;98926.36;;;18.76;67.03
77381;BME280;66439;50.106;10.996;2023-08-12T03:16:50;98924.98;;;18.77;66.94
77381;BME280;66439;50.106;10.996;2023-08-12T03:18:53;98927.54;;;18.78;66.92
77381;BME280;66439;50.106;10.996;2023-08-12T03:20:56;98928.27;;;18.77;66.87
77381;BME280;66439;50.106;10.996;2023-08-12T03:23:00;98930.73;;;18.77;67.11
77381;BME280;66439;50.106;10.996;2023-08-12T03:25:04;98931.30;;;18.73;67.17
77381;BME280;66439;50.106;10.996;2023-08-12T03:27:07;98937.95;;;18.71;67.23
77381;BME280;66439;50.106;10.996;2023-08-12T03:29:16;98935.39;;;18.70;67.30
77381;BME280;66439;50.106;10.996;2023-08-12T03:31:19;98936.48;;;18.68;67.09
77381;BME280;66439;50.106;10.996;2023-08-12T03:33:22;98937.88;;;18.68;67.19
77381;BME280;66439;50.106;10.996;2023-08-12T03:35:30;98940.64;;;18.69;67.18
77381;BME280;66439;50.106;10.996;2023-08-12T03:37:35;98944.61;;;18.72;67.10
77381;BME280;66439;50.106;10.996;2023-08-12T03:39:38;98948.03;;;18.70;67.18
77381;BME280;66439;50.106;10.996;2023-08-12T03:41:43;98950.88;;;18.67;67.19
77381;BME280;66439;50.106;10.996;2023-08-12T03:43:49;98955.27;;;18.63;67.34
77381;BME280;66439;50.106;10.996;2023-08-12T03:45:52;98953.51;;;18.59;67.55
77381;BME280;66439;50.106;10.996;2023-08-12T03:47:56;98953.08;;;18.59;67.59
77381;BME280;66439;50.106;10.996;2023-08-12T03:49:59;98947.84;;;18.59;67.50
77381;BME280;66439;50.106;10.996;2023-08-12T03:52:03;98950.85;;;18.60;67.46
77381;BME280;66439;50.106;10.996;2023-08-12T03:54:11;98950.92;;;18.61;67.37
77381;BME280;66439;50.106;10.996;2023-08-12T03:56:15;98942.85;;;18.60;67.27
77381;BME280;66439;50.106;10.996;2023-08-12T03:58:19;98942.15;;;18.59;67.55
77381;BME280;66439;50.106;10.996;2023-08-12T04:00:22;98936.23;;;18.57;67.45
77381;BME280;66439;50.106;10.996;2023-08-12T04:02:31;98936.38;;;18.55;67.39
77381;BME280;66439;50.106;10.996;2023-08-12T04:04:35;98935.56;;;18.54;67.34
77381;BME280;66439;50.106;10.996;2023-08-12T04:06:38;98932.77;;;18.53;67.59
77381;BME280;66439;50.106;10.996;2023-08-12T04:08:41;98931.42;;;18.51;67.85
77381;BME280;66439;50.106;10.996;2023-08-12T04:10:46;98925.94;;;18.51;67.58
77381;BME280;66439;50.106;10.996;2023-08-12T04:12:50;98927.40;;;18.51;67.73
77381;BME280;66439;50.106;10.996;2023-08-12T04:14:53;98931.07;;;18.53;67.80
77381;BME280;66439;50.106;10.996;2023-08-12T04:16:57;98931.77;;;18.56;67.69
77381;BME280;66439;50.106;10.996;2023-08-12T04:19:00;98935.16;;;18.57;67.57
77381;BME280;66439;50.106;10.996;2023-08-12T04:21:05;98933.25;;;18.59;67.47
77381;BME280;66439;50.106;10.996;2023-08-12T04:23:08;98934.60;;;18.61;67.56
77381;BME280;66439;50.106;10.996;2023-08-12T04:25:11;98931.44;;;18.65;67.57
77381;BME280;66439;50.106;10.996;2023-08-12T04:27:13;98931.11;;;18.67;67.45
77381;BME280;66439;50.106;10.996;2023-08-12T04:29:19;98928.52;;;18.69;67.57
77381;BME280;66439;50.106;10.996;2023-08-12T04:31:21;98924.20;;;18.70;67.41
77381;BME280;66439;50.106;10.996;2023-08-12T04:33:26;98925.20;;;18.73;67.46
77381;BME280;66439;50.106;10.996;2023-08-12T04:35:31;98923.77;;;18.74;67.42
77381;BME280;66439;50.106;10.996;2023-08-12T04:37:37;98922.08;;;18.75;67.34
77381;BME280;66439;50.106;10.996;2023-08-12T04:39:41;98926.34;;;18.76;67.18
77381;BME280;66439;50.106;10.996;2023-08-12T04:41:45;98921.44;;;18.76;67.36
77381;BME280;66439;50.106;10.996;2023-08-12T04:43:48;98921.85;;;18.77;67.24
77381;BME280;66439;50.106;10.996;2023-08-12T04:45:52;98921.69;;;18.77;67.13
77381;BME280;66439;50.106;10.996;2023-08-12T04:47:57;98925.02;;;18.77;67.15
77381;BME280;66439;50.106;10.996;2023-08-12T04:50:00;98922.77;;;18.77;67.09
77381;BME280;66439;50.106;10.996;2023-08-12T04:52:03;98921.58;;;18.81;67.13
77381;BME280;66439;50.106;10.996;2023-08-12T04:54:06;98922.09;;;18.84;67.18
77381;BME280;66439;50.106;10.996;2023-08-12T04:56:10;98922.30;;;18.86;67.10
77381;BME280;66439;50.106;10.996;2023-08-12T04:58:13;98921.73;;;18.89;67.23
77381;BME280;66439;50.106;10.996;2023-08-12T05:00:17;98915.27;;;18.91;67.20
77381;BME280;66439;50.106;10.996;2023-08-12T05:02:20;98914.27;;;18.93;67.09
77381;BME280;66439;50.106;10.996;2023-08-12T05:04:24;98912.27;;;18.95;67.16
77381;BME280;66439;50.106;10.996;2023-08-12T05:06:28;98915.31;;;18.93;67.33
77381;BME280;66439;50.106;10.996;2023-08-12T05:08:31;98911.42;;;18.93;67.36
77381;BME280;66439;50.106;10.996;2023-08-12T05:10:34;98910.61;;;18.92;67.62
77381;BME280;66439;50.106;10.996;2023-08-12T05:12:38;98908.27;;;18.93;67.50
77381;BME280;66439;50.106;10.996;2023-08-12T05:14:42;98908.27;;;18.96;67.81
77381;BME280;66439;50.106;10.996;2023-08-12T05:16:45;98907.45;;;18.98;68.16
77381;BME280;66439;50.106;10.996;2023-08-12T05:18:48;98904.80;;;19.02;67.95
77381;BME280;66439;50.106;10.996;2023-08-12T05:20:54;98899.71;;;19.05;67.93
77381;BME280;66439;50.106;10.996;2023-08-12T05:22:57;98899.22;;;19.10;67.77
77381;BME280;66439;50.106;10.996;2023-08-12T05:25:03;98898.81;;;19.13;67.74
77381;BME280;66439;50.106;10.996;2023-08-12T05:27:06;98896.95;;;19.14;67.87
77381;BME280;66439;50.106;10.996;2023-08-12T05:29:09;98891.91;;;19.15;67.74
77381;BME280;66439;50.106;10.996;2023-08-12T05:31:12;98888.03;;;19.16;67.71
77381;BME280;66439;50.106;10.996;2023-08-12T05:33:16;98885.54;;;19.17;67.58
77381;BME280;66439;50.106;10.996;2023-08-12T05:35:20;98883.90;;;19.18;67.78
77381;BME280;66439;50.106;10.996;2023-08-12T05:37:24;98885.88;;;19.20;67.58
77381;BME280;66439;50.106;10.996;2023-08-12T05:39:27;98887.25;;;19.21;67.51
77381;BME280;66439;50.106;10.996;2023-08-12T05:41:31;98889.98;;;19.23;67.70
77381;BME280;66439;50.106;10.996;2023-08-12T05:43:35;98891.86;;;19.25;67.68
77381;BME280;66439;50.106;10.996;2023-08-12T05:45:40;98893.13;;;19.26;67.69
77381;BME280;66439;50.106;10.996;2023-08-12T05:47:44;98897.02;;;19.27;67.70
77381;BME280;66439;50.106;10.996;2023-08-12T05:49:49;98899.60;;;19.26;67.65
77381;BME280;66439;50.106;10.996;2023-08-12T05:51:54;98901.08;;;19.25;67.88
77381;BME280;66439;50.106;10.996;2023-08-12T05:53:58;98903.45;;;19.25;67.80
77381;BME280;66439;50.106;10.996;2023-08-12T05:56:02;98904.48;;;19.29;67.66
77381;BME280;66439;50.106;10.996;2023-08-12T05:58:06;98906.41;;;19.32;67.59
77381;BME280;66439;50.106;10.996;2023-08-12T06:00:11;98907.52;;;19.38;67.39
77381;BME280;66439;50.106;10.996;2023-08-12T06:02:25;98902.65;;;19.42;67.37
77381;BME280;66439;50.106;10.996;2023-08-12T06:04:29;98901.22;;;19.46;67.56
77381;BME280;66439;50.106;10.996;2023-08-12T06:06:32;98897.42;;;19.50;67.52
77381;BME280;66439;50.106;10.996;2023-08-12T06:08:37;98893.85;;;19.54;67.59
77381;BME280;66439;50.106;10.996;2023-08-12T06:10:41;98889.23;;;19.57;67.38
77381;BME280;66439;50.106;10.996;2023-08-12T06:12:46;98892.47;;;19.60;67.47
77381;BME280;66439;50.106;10.996;2023-08-12T06:14:51;98890.91;;;19.60;67.57
77381;BME280;66439;50.106;10.996;2023-08-12T06:16:56;98893.98;;;19.60;67.61
77381;BME280;66439;50.106;10.996;2023-08-12T06:19:01;98892.23;;;19.59;67.56
77381;BME280;66439;50.106;10.996;2023-08-12T06:21:05;98891.12;;;19.60;67.55
77381;BME280;66439;50.106;10.996;2023-08-12T06:23:10;98891.95;;;19.62;67.73
77381;BME280;66439;50.106;10.996;2023-08-12T06:25:13;98889.58;;;19.64;67.66
77381;BME280;66439;50.106;10.996;2023-08-12T06:27:16;98893.81;;;19.68;67.57
77381;BME280;66439;50.106;10.996;2023-08-12T06:29:23;98898.20;;;19.72;67.48
77381;BME280;66439;50.106;10.996;2023-08-12T06:31:28;98899.39;;;19.72;67.47
77381;BME280;66439;50.106;10.996;2023-08-12T06:33:33;98901.91;;;19.71;67.50
77381;BME280;66439;50.106;10.996;2023-08-12T06:35:38;98899.73;;;19.67;67.57
77381;BME280;66439;50.106;10.996;2023-08-12T06:37:44;98900.32;;;19.67;67.50
77381;BME280;66439;50.106;10.996;2023-08-12T06:39:48;98897.65;;;19.71;67.62
77381;BME280;66439;50.106;10.996;2023-08-12T06:41:51;98899.40;;;19.78;67.52
77381;BME280;66439;50.106;10.996;2023-08-12T06:43:57;98898.25;;;19.81;67.30
77381;BME280;66439;50.106;10.996;2023-08-12T06:46:00;98899.98;;;19.85;67.21
77381;BME280;66439;50.106;10.996;2023-08-12T06:48:05;98906.71;;;19.92;67.28
77381;BME280;66439;50.106;10.996;2023-08-12T06:50:10;98906.84;;;19.98;67.28
77381;BME280;66439;50.106;10.996;2023-08-12T06:52:14;98909.06;;;20.01;67.23
77381;BME280;66439;50.106;10.996;2023-08-12T06:54:19;98910.28;;;20.04;67.02
77381;BME280;66439;50.106;10.996;2023-08-12T06:56:25;98911.35;;;20.08;66.90
77381;BME280;66439;50.106;10.996;2023-08-12T06:58:28;98905.33;;;20.09;66.92
77381;BME280;66439;50.106;10.996;2023-08-12T07:00:31;98900.36;;;20.12;67.07
77381;BME280;66439;50.106;10.996;2023-08-12T07:02:39;98901.14;;;20.12;66.92
77381;BME280;66439;50.106;10.996;2023-08-12T07:04:46;98900.57;;;20.17;66.93
77381;BME280;66439;50.106;10.996;2023-08-12T07:06:49;98901.39;;;20.20;66.73
77381;BME280;66439;50.106;10.996;2023-08-12T07:08:53;98905.89;;;20.25;66.80
77381;BME280;66439;50.106;10.996;2023-08-12T07:10:56;98906.11;;;20.30;66.81
77381;BME280;66439;50.106;10.996;2023-08-12T07:12:59;98907.44;;;20.34;66.75
77381;BME280;66439;50.106;10.996;2023-08-12T07:15:05;98910.21;;;20.39;66.72
77381;BME280;66439;50.106;10.996;2023-08-12T07:17:11;98910.48;;;20.45;66.37
77381;BME280;66439;50.106;10.996;2023-08-12T07:19:14;98909.16;;;20.46;66.02
77381;BME280;66439;50.106;10.996;2023-08-12T07:21:18;98910.17;;;20.46;65.72
77381;BME280;66439;50.106;10.996;2023-08-12T07:23:26;98912.20;;;20.48;65.90
77381;BME280;66439;50.106;10.996;2023-08-12T07:25:30;98909.86;;;20.51;65.81
77381;BME280;66439;50.106;10.996;2023-08-12T07:27:32;98907.39;;;20.56;65.69
77381;BME280;66439;50.106;10.996;2023-08-12T07:29:40;98906.48;;;20.61;65.77
77381;BME280;66439;50.106;10.996;2023-08-12T07:31:46;98906.67;;;20.65;65.75
77381;BME280;66439;50.106;10.996;2023-08-12T07:33:52;98899.69;;;20.71;65.67
77381;BME280;66439;50.106;10.996;2023-08-12T07:35:58;98901.06;;;20.76;65.53
77381;BME280;66439;50.106;10.996;2023-08-12T07:38:02;98899.27;;;20.80;65.31
77381;BME280;66439;50.106;10.996;2023-08-12T07:40:05;98902.23;;;20.84;65.16
77381;BME280;66439;50.106;10.996;2023-08-12T07:42:09;98906.19;;;20.85;65.06
77381;BME280;66439;50.106;10.996;2023-08-12T07:44:12;98908.20;;;20.86;65.19
77381;BME280;66439;50.106;10.996;2023-08-12T07:46:15;98909.42;;;20.91;65.18
77381;BME280;66439;50.106;10.996;2023-08-12T07:48:19;98908.51;;;20.95;64.92
77381;BME280;66439;50.106;10.996;2023-08-12T07:50:24;98908.27;;;20.96;64.81
77381;BME280;66439;50.106;10.996;2023-08-12T07:52:32;98913.98;;;20.95;64.83
77381;BME280;66439;50.106;10.996;2023-08-12T07:54:37;98913.86;;;20.95;64.70
77381;BME280;66439;50.106;10.996;2023-08-12T07:56:40;98913.75;;;20.98;64.75
77381;BME280;66439;50.106;10.996;2023-08-12T07:58:43;98912.11;;;21.00;64.67
77381;BME280;66439;50.106;10.996;2023-08-12T08:00:52;98909.19;;;21.04;64.61
77381;BME280;66439;50.106;10.996;2023-08-12T08:02:56;98911.85;;;21.08;64.53
77381;BME280;66439;50.106;10.996;2023-08-12T08:05:20;98911.59;;;21.09;64.24
77381;BME280;66439;50.106;10.996;2023-08-12T08:07:23;98912.89;;;21.11;64.21
77381;BME280;66439;50.106;10.996;2023-08-12T08:09:27;98911.29;;;21.13;64.16
77381;BME280;66439;50.106;10.996;2023-08-12T08:11:31;98912.16;;;21.13;63.80
77381;BME280;66439;50.106;10.996;2023-08-12T08:13:42;98911.13;;;21.13;63.91
77381;BME280;66439;50.106;10.996;2023-08-12T08:15:47;98915.42;;;21.14;63.91
77381;BME280;66439;50.106;10.996;2023-08-12T08:17:51;98914.02;;;21.19;63.73
77381;BME280;66439;50.106;10.996;2023-08-12T08:19:56;98910.83;;;21.22;63.34
77381;BME280;66439;50.106;10.996;2023-08-12T08:22:00;98909.98;;;21.23;63.52
77381;BME280;66439;50.106;10.996;2023-08-12T08:24:18;98908.48;;;21.28;63.59
77381;BME280;66439;50.106;10.996;2023-08-12T08:26:27;98913.94;;;21.32;63.79
77381;BME280;66439;50.106;10.996;2023-08-12T08:28:37;98908.11;;;21.36;63.57
77381;BME280;66439;50.106;10.996;2023-08-12T08:31:01;98907.80;;;21.43;63.48
77381;BME280;66439;50.106;10.996;2023-08-12T08:33:11;98911.65;;;21.50;63.55
77381;BME280;66439;50.106;10.996;2023-08-12T08:35:18;98913.67;;;21.57;63.35
77381;BME280;66439;50.106;10.996;2023-08-12T08:37:21;98910.67;;;21.62;63.28
77381;BME280;66439;50.106;10.996;2023-08-12T08:39:32;98912.42;;;21.68;63.21
77381;BME280;66439;50.106;10.996;2023-08-12T08:41:48;98910.02;;;21.73;63.29
77381;BME280;66439;50.106;10.996;2023-08-12T08:43:54;98912.53;;;21.80;63.19
77381;BME280;66439;50.106;10.996;2023-08-12T08:45:59;98907.70;;;21.86;62.80
77381;BME280;66439;50.106;10.996;2023-08-12T08:48:07;98909.72;;;21.89;62.71
77381;BME280;66439;50.106;10.996;2023-08-12T08:50:11;98912.55;;;21.89;62.79
77381;BME280;66439;50.106;10.996;2023-08-12T08:52:15;98910.63;;;21.92;62.79
77381;BME280;66439;50.106;10.996;2023-08-12T08:54:19;98913.73;;;21.94;62.67
77381;BME280;66439;50.106;10.996;2023-08-12T08:56:23;98910.67;;;21.93;62.41
77381;BME280;66439;50.106;10.996;2023-08-12T08:58:26;98910.34;;;21.89;62.06
77381;BME280;66439;50.106;10.996;2023-08-12T09:00:33;98910.85;;;21.84;61.89
77381;BME280;66439;50.106;10.996;2023-08-12T09:02:41;98904.58;;;21.79;62.11
77381;BME280;66439;50.106;10.996;2023-08-12T09:04:49;98899.83;;;21.77;62.44
77381;BME280;66439;50.106;10.996;2023-08-12T09:06:54;98901.23;;;21.77;62.33
77381;BME280;66439;50.106;10.996;2023-08-12T09:09:02;98904.20;;;21.76;62.13
77381;BME280;66439;50.106;10.996;2023-08-12T09:11:12;98904.70;;;21.74;62.49
77381;BME280;66439;50.106;10.996;2023-08-12T09:13:16;98905.23;;;21.76;62.47
77381;BME280;66439;50.106;10.996;2023-08-12T09:15:22;98912.32;;;21.80;62.16
77381;BME280;66439;50.106;10.996;2023-08-12T09:17:30;98915.54;;;21.86;62.56
77381;BME280;66439;50.106;10.996;2023-08-12T09:19:37;98905.47;;;21.90;62.55
77381;BME280;66439;50.106;10.996;2023-08-12T09:21:43;98901.90;;;21.96;62.43
77381;BME280;66439;50.106;10.996;2023-08-12T09:23:46;98901.94;;;22.02;62.42
77381;BME280;66439;50.106;10.996;2023-08-12T09:25:53;98901.02;;;22.09;62.42
77381;BME280;66439;50.106;10.996;2023-08-12T09:28:03;98902.55;;;22.16;62.44
77381;BME280;66439;50.106;10.996;2023-08-12T09:30:09;98903.02;;;22.19;61.78
77381;BME280;66439;50.106;10.996;2023-08-12T09:32:18;98901.09;;;22.21;61.64
77381;BME280;66439;50.106;10.996;2023-08-12T09:34:24;98903.40;;;22.25;61.50
77381;BME280;66439;50.106;10.996;2023-08-12T09:36:30;98903.04;;;22.31;61.52
77381;BME280;66439;50.106;10.996;2023-08-12T09:38:40;98902.42;;;22.39;61.80
77381;BME280;66439;50.106;10.996;2023-08-12T09:40:47;98897.45;;;22.45;61.33
77381;BME280;66439;50.106;10.996;2023-08-12T09:42:59;98895.09;;;22.50;61.29
77381;BME280;66439;50.106;10.996;2023-08-12T09:45:04;98899.06;;;22.56;61.06
77381;BME280;66439;50.106;10.996;2023-08-12T09:47:08;98897.09;;;22.60;61.12
77381;BME280;66439;50.106;10.996;2023-08-12T09:49:18;98893.45;;;22.63;60.89
77381;BME280;66439;50.106;10.996;2023-08-12T09:51:25;98891.63;;;22.66;60.86
77381;BME280;66439;50.106;10.996;2023-08-12T09:53:29;98885.24;;;22.67;61.08
77381;BME280;66439;50.106;10.996;2023-08-12T09:55:35;98879.48;;;22.72;60.99
77381;BME280;66439;50.106;10.996;2023-08-12T09:57:42;98871.14;;;22.79;60.89
77381;BME280;66439;50.106;10.996;2023-08-12T09:59:47;98871.11;;;22.89;61.15
77381;BME280;66439;50.106;10.996;2023-08-12T10:01:53;98869.58;;;22.96;60.49
77381;BME280;66439;50.106;10.996;2023-08-12T10:04:01;98865.33;;;23.01;60.43
77381;BME280;66439;50.106;10.996;2023-08-12T10:06:13;98862.05;;;23.07;60.49
77381;BME280;66439;50.106;10.996;2023-08-12T10:08:19;98862.84;;;23.10;60.52
77381;BME280;66439;50.106;10.996;2023-08-12T10:10:24;98868.92;;;23.13;60.19
77381;BME280;66439;50.106;10.996;2023-08-12T10:12:34;98870.65;;;23.11;60.11
77381;BME280;66439;50.106;10.996;2023-08-12T10:14:46;98871.34;;;23.10;60.14
77381;BME280;66439;50.106;10.996;2023-08-12T10:16:53;98870.88;;;23.11;60.22
77381;BME280;66439;50.106;10.996;2023-08-12T10:19:11;98864.55;;;23.14;60.31
77381;BME280;66439;50.106;10.996;2023-08-12T10:21:19;98864.69;;;23.20;60.12
77381;BME280;66439;50.106;10.996;2023-08-12T10:23:27;98865.38;;;23.26;60.31
77381;BME280;66439;50.106;10.996;2023-08-12T10:25:37;98863.30;;;23.32;60.39
77381;BME280;66439;50.106;10.996;2023-08-12T10:27:41;98860.78;;;23.38;60.35
77381;BME280;66439;50.106;10.996;2023-08-12T10:29:46;98861.48;;;23.48;60.21
77381;BME280;66439;50.106;10.996;2023-08-12T10:31:52;98859.36;;;23.56;59.95
77381;BME280;66439;50.106;10.996;2023-08-12T10:33:59;98851.46;;;23.61;59.55
77381;BME280;66439;50.106;10.996;2023-08-12T10:36:08;98852.53;;;23.66;59.77
77381;BME280;66439;50.106;10.996;2023-08-12T10:38:31;98847.23;;;23.73;59.93
77381;BME280;66439;50.106;10.996;2023-08-12T10:40:36;98845.12;;;23.82;60.01
77381;BME280;66439;50.106;10.996;2023-08-12T10:42:44;98845.02;;;23.92;60.01
77381;BME280;66439;50.106;10.996;2023-08-12T10:44:53;98835.60;;;24.00;59.38
77381;BME280;66439;50.106;10.996;2023-08-12T10:47:09;98831.61;;;24.08;58.89
77381;BME280;66439;50.106;10.996;2023-08-12T10:49:14;98830.27;;;24.13;58.42
77381;BME280;66439;50.106;10.996;2023-08-12T10:51:18;98832.77;;;24.16;57.70
77381;BME280;66439;50.106;10.996;2023-08-12T10:55:39;98829.91;;;24.24;57.53
77381;BME280;66439;50.106;10.996;2023-08-12T10:58:00;98833.55;;;24.25;57.06